sensor_id;sensor_type;location;lat;lon;timestamp;temperature;humidity
57753;DHT22;43583;53.132;6.574;2022-07-15T00:00:17;12.40;99.90
57753;DHT22;43583;53.132;6.574;2022-07-15T00:02:42;12.50;99.90
57753;DHT22;43583;53.132;6.574;2022-07-15T00:05:09;12.50;99.90
57753;DHT22;43583;53.132;6.574;2022-07-15T00:07:35;12.50;99.90
57753;DHT22;43583;53.132;6.574;2022-07-15T00:10:01;12.60;99.90
57753;DHT22;43583;53.132;6.574;2022-07-15T00:12:43;12.60;99.90
57753;DHT22;43583;53.132;6.574;2022-07-15T00:15:09;12.60;99.90
57753;DHT22;43583;53.132;6.574;2022-07-15T00:17:35;12.70;99.90
57753;DHT22;43583;53.132;6.574;2022-07-15T00:20:01;12.80;99.90
57753;DHT22;43583;53.132;6.574;2022-07-15T00:22:27;12.80;99.90
57753;DHT22;43583;53.132;6.574;2022-07-15T00:24:52;12.80;99.90
57753;DHT22;43583;53.132;6.574;2022-07-15T00:27:18;12.80;99.90
57753;DHT22;43583;53.132;6.574;2022-07-15T00:29:43;12.80;99.90
57753;DHT22;43583;53.132;6.574;2022-07-15T00:32:09;12.80;99.90
57753;DHT22;43583;53.132;6.574;2022-07-15T00:34:35;12.80;99.90
57753;DHT22;43583;53.132;6.574;2022-07-15T00:37:00;12.80;99.90
57753;DHT22;43583;53.132;6.574;2022-07-15T00:39:26;12.90;99.90
57753;DHT22;43583;53.132;6.574;2022-07-15T00:41:52;12.90;99.90
57753;DHT22;43583;53.132;6.574;2022-07-15T00:44:17;13.00;99.90
57753;DHT22;43583;53.132;6.574;2022-07-15T00:46:43;13.00;99.90
57753;DHT22;43583;53.132;6.574;2022-07-15T00:49:10;13.00;99.90
57753;DHT22;43583;53.132;6.574;2022-07-15T00:51:43;13.00;99.90
57753;DHT22;43583;53.132;6.574;2022-07-15T00:54:11;13.10;99.90
57753;DHT22;43583;53.132;6.574;2022-07-15T00:56:42;13.20;99.90
57753;DHT22;43583;53.132;6.574;2022-07-15T00:59:10;13.20;99.90
57753;DHT22;43583;53.132;6.574;2022-07-15T01:01:37;13.20;99.90
57753;DHT22;43583;53.132;6.574;2022-07-15T01:04:04;13.20;99.90
57753;DHT22;43583;53.132;6.574;2022-07-15T01:06:31;13.10;99.90
57753;DHT22;43583;53.132;6.574;2022-07-15T01:08:57;13.10;99.90
57753;DHT22;43583;53.132;6.574;2022-07-15T01:11:23;13.00;99.90
57753;DHT22;43583;53.132;6.574;2022-07-15T01:13:48;12.90;99.90
57753;DHT22;43583;53.132;6.574;2022-07-15T01:16:14;12.80;99.90
57753;DHT22;43583;53.132;6.574;2022-07-15T01:18:40;12.70;99.90
57753;DHT22;43583;53.132;6.574;2022-07-15T01:21:05;12.60;99.90
57753;DHT22;43583;53.132;6.574;2022-07-15T01:23:31;12.50;99.90
57753;DHT22;43583;53.132;6.574;2022-07-15T01:25:57;12.50;99.90
57753;DHT22;43583;53.132;6.574;2022-07-15T01:28:22;12.40;99.90
57753;DHT22;43583;53.132;6.574;2022-07-15T01:30:48;12.40;99.90
57753;DHT22;43583;53.132;6.574;2022-07-15T01:33:14;12.40;99.90
57753;DHT22;43583;53.132;6.574;2022-07-15T01:35:40;12.40;99.90
57753;DHT22;43583;53.132;6.574;2022-07-15T01:38:07;12.50;99.90
57753;DHT22;43583;53.132;6.574;2022-07-15T01:40:33;12.60;99.90
57753;DHT22;43583;53.132;6.574;2022-07-15T01:42:58;12.60;99.90
57753;DHT22;43583;53.132;6.574;2022-07-15T01:45:24;12.60;99.90
57753;DHT22;43583;53.132;6.574;2022-07-15T01:47:50;12.60;99.90
57753;DHT22;43583;53.132;6.574;2022-07-15T01:50:16;12.70;99.90
57753;DHT22;43583;53.132;6.574;2022-07-15T01:52:41;12.70;99.90
57753;DHT22;43583;53.132;6.574;2022-07-15T01:55:08;12.80;99.90
57753;DHT22;43583;53.132;6.574;2022-07-15T01:57:34;12.80;99.90
57753;DHT22;43583;53.132;6.574;2022-07-15T02:00:00;12.80;99.90
57753;DHT22;43583;53.132;6.574;2022-07-15T02:02:26;12.80;99.90
57753;DHT22;43583;53.132;6.574;2022-07-15T02:04:52;12.90;99.90
57753;DHT22;43583;53.132;6.574;2022-07-15T02:07:17;12.90;99.90
57753;DHT22;43583;53.132;6.574;2022-07-15T02:09:43;12.80;99.90
57753;DHT22;43583;53.132;6.574;2022-07-15T02:12:09;12.80;99.90
57753;DHT22;43583;53.132;6.574;2022-07-15T02:14:35;12.80;99.90
57753;DHT22;43583;53.132;6.574;2022-07-15T02:17:01;12.70;99.90
57753;DHT22;43583;53.132;6.574;2022-07-15T02:19:28;12.60;99.90
57753;DHT22;43583;53.132;6.574;2022-07-15T02:21:54;12.50;99.90
57753;DHT22;43583;53.132;6.574;2022-07-15T02:24:19;12.40;99.90
57753;DHT22;43583;53.132;6.574;2022-07-15T02:26:48;12.20;99.90
57753;DHT22;43583;53.132;6.574;2022-07-15T02:29:15;12.10;99.90
57753;DHT22;43583;53.132;6.574;2022-07-15T02:31:40;12.00;99.90
57753;DHT22;43583;53.132;6.574;2022-07-15T02:34:06;11.90;99.90
57753;DHT22;43583;53.132;6.574;2022-07-15T02:36:32;11.80;99.90
57753;DHT22;43583;53.132;6.574;2022-07-15T02:38:58;11.70;99.90
57753;DHT22;43583;53.132;6.574;2022-07-15T02:41:23;11.60;99.90
57753;DHT22;43583;53.132;6.574;2022-07-15T02:43:50;11.60;99.90
57753;DHT22;43583;53.132;6.574;2022-07-15T02:46:15;11.50;99.90
57753;DHT22;43583;53.132;6.574;2022-07-15T02:48:41;11.40;99.90
57753;DHT22;43583;53.132;6.574;2022-07-15T02:51:07;11.40;99.90
57753;DHT22;43583;53.132;6.574;2022-07-15T02:53:33;11.30;99.90
57753;DHT22;43583;53.132;6.574;2022-07-15T02:56:00;11.30;99.90
57753;DHT22;43583;53.132;6.574;2022-07-15T02:58:27;11.10;99.90
57753;DHT22;43583;53.132;6.574;2022-07-15T03:00:53;11.10;99.90
57753;DHT22;43583;53.132;6.574;2022-07-15T03:03:19;11.00;99.90
57753;DHT22;43583;53.132;6.574;2022-07-15T03:05:45;11.00;99.90
57753;DHT22;43583;53.132;6.574;2022-07-15T03:08:11;11.00;99.90
57753;DHT22;43583;53.132;6.574;2022-07-15T03:10:36;10.90;99.90
57753;DHT22;43583;53.132;6.574;2022-07-15T03:13:02;10.90;99.90
57753;DHT22;43583;53.132;6.574;2022-07-15T03:15:28;10.80;99.90
57753;DHT22;43583;53.132;6.574;2022-07-15T03:17:53;10.80;99.90
57753;DHT22;43583;53.132;6.574;2022-07-15T03:20:19;10.70;99.90
57753;DHT22;43583;53.132;6.574;2022-07-15T03:22:44;10.70;99.90
57753;DHT22;43583;53.132;6.574;2022-07-15T03:25:10;10.70;99.90
57753;DHT22;43583;53.132;6.574;2022-07-15T03:27:35;10.70;99.90
57753;DHT22;43583;53.132;6.574;2022-07-15T03:30:02;10.70;99.90
57753;DHT22;43583;53.132;6.574;2022-07-15T03:32:27;10.60;99.90
57753;DHT22;43583;53.132;6.574;2022-07-15T03:34:53;10.60;99.90
57753;DHT22;43583;53.132;6.574;2022-07-15T03:37:22;10.60;99.90
57753;DHT22;43583;53.132;6.574;2022-07-15T03:39:47;10.60;99.90
57753;DHT22;43583;53.132;6.574;2022-07-15T03:42:13;10.60;99.90
57753;DHT22;43583;53.132;6.574;2022-07-15T03:44:38;10.70;99.90
57753;DHT22;43583;53.132;6.574;2022-07-15T03:47:04;10.70;99.90
57753;DHT22;43583;53.132;6.574;2022-07-15T03:49:29;10.80;99.90
57753;DHT22;43583;53.132;6.574;2022-07-15T03:51:55;10.90;99.90
57753;DHT22;43583;53.132;6.574;2022-07-15T03:54:21;10.90;99.90
57753;DHT22;43583;53.132;6.574;2022-07-15T03:56:46;11.00;99.90
57753;DHT22;43583;53.132;6.574;2022-07-15T03:59:13;11.10;99.90
57753;DHT22;43583;53.132;6.574;2022-07-15T04:01:40;11.10;99.90
57753;DHT22;43583;53.132;6.574;2022-07-15T04:04:05;11.20;99.90
57753;DHT22;43583;53.132;6.574;2022-07-15T04:06:31;11.30;99.90
57753;DHT22;43583;53.132;6.574;2022-07-15T04:08:58;11.40;99.90
57753;DHT22;43583;53.132;6.574;2022-07-15T04:11:24;11.40;99.90
57753;DHT22;43583;53.132;6.574;2022-07-15T04:13:50;11.50;99.90
57753;DHT22;43583;53.132;6.574;2022-07-15T04:16:16;11.60;99.90
57753;DHT22;43583;53.132;6.574;2022-07-15T04:18:41;11.60;99.90
57753;DHT22;43583;53.132;6.574;2022-07-15T04:21:07;11.70;99.90
57753;DHT22;43583;53.132;6.574;2022-07-15T04:23:33;11.80;99.90
57753;DHT22;43583;53.132;6.574;2022-07-15T04:25:58;11.90;99.90
57753;DHT22;43583;53.132;6.574;2022-07-15T04:28:25;12.00;99.90
57753;DHT22;43583;53.132;6.574;2022-07-15T04:30:51;12.00;99.90
57753;DHT22;43583;53.132;6.574;2022-07-15T04:33:17;12.10;99.90
57753;DHT22;43583;53.132;6.574;2022-07-15T04:35:44;12.20;99.90
57753;DHT22;43583;53.132;6.574;2022-07-15T04:38:10;12.60;99.90
57753;DHT22;43583;53.132;6.574;2022-07-15T04:40:36;13.10;99.90
57753;DHT22;43583;53.132;6.574;2022-07-15T04:43:05;13.60;99.90
57753;DHT22;43583;53.132;6.574;2022-07-15T04:45:30;13.90;99.90
57753;DHT22;43583;53.132;6.574;2022-07-15T04:47:56;14.10;99.90
57753;DHT22;43583;53.132;6.574;2022-07-15T04:50:21;14.40;99.90
57753;DHT22;43583;53.132;6.574;2022-07-15T04:53:06;14.70;99.90
57753;DHT22;43583;53.132;6.574;2022-07-15T04:55:32;15.00;99.90
57753;DHT22;43583;53.132;6.574;2022-07-15T04:57:58;15.10;99.90
57753;DHT22;43583;53.132;6.574;2022-07-15T05:00:24;15.10;99.90
57753;DHT22;43583;53.132;6.574;2022-07-15T05:02:50;15.00;99.90
57753;DHT22;43583;53.132;6.574;2022-07-15T05:05:15;14.90;99.90
57753;DHT22;43583;53.132;6.574;2022-07-15T05:07:41;14.80;99.90
57753;DHT22;43583;53.132;6.574;2022-07-15T05:10:07;14.80;99.90
57753;DHT22;43583;53.132;6.574;2022-07-15T05:12:34;14.70;99.90
57753;DHT22;43583;53.132;6.574;2022-07-15T05:15:00;14.60;99.90
57753;DHT22;43583;53.132;6.574;2022-07-15T05:17:25;14.50;99.90
57753;DHT22;43583;53.132;6.574;2022-07-15T05:19:51;14.40;99.90
57753;DHT22;43583;53.132;6.574;2022-07-15T05:22:18;14.30;99.90
57753;DHT22;43583;53.132;6.574;2022-07-15T05:24:43;14.30;99.90
57753;DHT22;43583;53.132;6.574;2022-07-15T05:27:10;14.20;99.90
57753;DHT22;43583;53.132;6.574;2022-07-15T05:29:35;14.30;99.90
57753;DHT22;43583;53.132;6.574;2022-07-15T05:32:01;14.30;99.90
57753;DHT22;43583;53.132;6.574;2022-07-15T05:34:26;14.30;99.90
57753;DHT22;43583;53.132;6.574;2022-07-15T05:36:52;14.30;99.90
57753;DHT22;43583;53.132;6.574;2022-07-15T05:39:17;14.40;99.90
57753;DHT22;43583;53.132;6.574;2022-07-15T05:41:43;14.40;99.90
57753;DHT22;43583;53.132;6.574;2022-07-15T05:44:08;14.50;99.90
57753;DHT22;43583;53.132;6.574;2022-07-15T05:46:34;14.90;99.90
57753;DHT22;43583;53.132;6.574;2022-07-15T05:49:00;15.30;99.90
57753;DHT22;43583;53.132;6.574;2022-07-15T05:51:26;15.80;99.90
57753;DHT22;43583;53.132;6.574;2022-07-15T05:53:51;16.10;99.90
57753;DHT22;43583;53.132;6.574;2022-07-15T05:56:17;16.30;99.90
57753;DHT22;43583;53.132;6.574;2022-07-15T05:58:42;16.60;99.90
57753;DHT22;43583;53.132;6.574;2022-07-15T06:01:08;16.80;99.90
57753;DHT22;43583;53.132;6.574;2022-07-15T06:03:34;16.90;99.90
57753;DHT22;43583;53.132;6.574;2022-07-15T06:06:00;16.80;99.90
57753;DHT22;43583;53.132;6.574;2022-07-15T06:08:27;16.70;99.90
57753;DHT22;43583;53.132;6.574;2022-07-15T06:10:53;16.70;99.90
57753;DHT22;43583;53.132;6.574;2022-07-15T06:13:18;16.80;99.90
57753;DHT22;43583;53.132;6.574;2022-07-15T06:15:46;16.90;99.90
57753;DHT22;43583;53.132;6.574;2022-07-15T06:18:11;17.10;99.90
57753;DHT22;43583;53.132;6.574;2022-07-15T06:20:37;17.20;99.90
57753;DHT22;43583;53.132;6.574;2022-07-15T06:23:03;17.20;99.90
57753;DHT22;43583;53.132;6.574;2022-07-15T06:25:28;17.20;99.90
57753;DHT22;43583;53.132;6.574;2022-07-15T06:27:54;17.20;99.90
57753;DHT22;43583;53.132;6.574;2022-07-15T06:30:19;17.10;99.90
57753;DHT22;43583;53.132;6.574;2022-07-15T06:32:45;17.00;99.90
57753;DHT22;43583;53.132;6.574;2022-07-15T06:35:11;16.90;99.90
57753;DHT22;43583;53.132;6.574;2022-07-15T06:37:37;16.80;99.90
57753;DHT22;43583;53.132;6.574;2022-07-15T06:40:03;16.80;99.90
57753;DHT22;43583;53.132;6.574;2022-07-15T06:42:29;16.80;99.90
57753;DHT22;43583;53.132;6.574;2022-07-15T06:44:54;17.00;99.90
57753;DHT22;43583;53.132;6.574;2022-07-15T06:47:20;17.50;99.90
57753;DHT22;43583;53.132;6.574;2022-07-15T06:49:46;17.90;99.90
57753;DHT22;43583;53.132;6.574;2022-07-15T06:52:12;18.50;99.90
57753;DHT22;43583;53.132;6.574;2022-07-15T06:54:37;19.00;99.90
57753;DHT22;43583;53.132;6.574;2022-07-15T06:57:03;19.50;99.90
57753;DHT22;43583;53.132;6.574;2022-07-15T06:59:29;20.50;99.90
57753;DHT22;43583;53.132;6.574;2022-07-15T07:01:54;21.80;99.90
57753;DHT22;43583;53.132;6.574;2022-07-15T07:04:21;22.90;99.90
57753;DHT22;43583;53.132;6.574;2022-07-15T07:06:47;22.80;97.10
57753;DHT22;43583;53.132;6.574;2022-07-15T07:09:13;22.50;95.70
57753;DHT22;43583;53.132;6.574;2022-07-15T07:11:38;22.30;96.20
57753;DHT22;43583;53.132;6.574;2022-07-15T07:14:05;22.30;95.80
57753;DHT22;43583;53.132;6.574;2022-07-15T07:16:31;23.50;96.70
57753;DHT22;43583;53.132;6.574;2022-07-15T07:18:56;24.90;92.90
57753;DHT22;43583;53.132;6.574;2022-07-15T07:21:22;25.80;84.90
57753;DHT22;43583;53.132;6.574;2022-07-15T07:23:48;25.90;79.00
57753;DHT22;43583;53.132;6.574;2022-07-15T07:26:14;25.30;76.30
57753;DHT22;43583;53.132;6.574;2022-07-15T07:28:40;25.30;76.40
57753;DHT22;43583;53.132;6.574;2022-07-15T07:31:12;25.10;75.20
57753;DHT22;43583;53.132;6.574;2022-07-15T07:33:38;24.60;72.70
57753;DHT22;43583;53.132;6.574;2022-07-15T07:36:05;23.60;73.80
57753;DHT22;43583;53.132;6.574;2022-07-15T07:38:33;22.60;78.00
57753;DHT22;43583;53.132;6.574;2022-07-15T07:40:59;22.10;81.30
57753;DHT22;43583;53.132;6.574;2022-07-15T07:43:25;21.50;83.50
57753;DHT22;43583;53.132;6.574;2022-07-15T07:45:51;20.80;85.90
57753;DHT22;43583;53.132;6.574;2022-07-15T07:48:16;20.30;89.10
57753;DHT22;43583;53.132;6.574;2022-07-15T07:50:43;19.90;91.00
57753;DHT22;43583;53.132;6.574;2022-07-15T07:53:09;19.70;92.60
57753;DHT22;43583;53.132;6.574;2022-07-15T07:55:35;19.50;94.10
57753;DHT22;43583;53.132;6.574;2022-07-15T07:58:02;19.50;95.30
57753;DHT22;43583;53.132;6.574;2022-07-15T08:00:29;19.50;95.50
57753;DHT22;43583;53.132;6.574;2022-07-15T08:02:56;19.50;96.00
57753;DHT22;43583;53.132;6.574;2022-07-15T08:05:23;19.50;97.30
57753;DHT22;43583;53.132;6.574;2022-07-15T08:07:48;19.30;97.10
57753;DHT22;43583;53.132;6.574;2022-07-15T08:10:15;19.20;97.80
57753;DHT22;43583;53.132;6.574;2022-07-15T08:12:41;19.00;99.10
57753;DHT22;43583;53.132;6.574;2022-07-15T08:15:09;18.80;99.40
57753;DHT22;43583;53.132;6.574;2022-07-15T08:17:39;18.70;99.90
57753;DHT22;43583;53.132;6.574;2022-07-15T08:20:06;18.60;99.90
57753;DHT22;43583;53.132;6.574;2022-07-15T08:22:33;18.70;99.90
57753;DHT22;43583;53.132;6.574;2022-07-15T08:24:59;19.00;99.90
57753;DHT22;43583;53.132;6.574;2022-07-15T08:27:25;19.40;99.90
57753;DHT22;43583;53.132;6.574;2022-07-15T08:29:50;19.50;98.60
57753;DHT22;43583;53.132;6.574;2022-07-15T08:32:16;19.60;97.70
57753;DHT22;43583;53.132;6.574;2022-07-15T08:34:41;19.50;97.40
57753;DHT22;43583;53.132;6.574;2022-07-15T08:37:08;19.30;97.30
57753;DHT22;43583;53.132;6.574;2022-07-15T08:39:35;19.20;98.10
57753;DHT22;43583;53.132;6.574;2022-07-15T08:42:03;19.30;98.50
57753;DHT22;43583;53.132;6.574;2022-07-15T08:44:29;19.40;97.70
57753;DHT22;43583;53.132;6.574;2022-07-15T08:46:57;19.60;98.80
57753;DHT22;43583;53.132;6.574;2022-07-15T08:49:29;19.80;97.90
57753;DHT22;43583;53.132;6.574;2022-07-15T08:51:57;20.40;96.40
57753;DHT22;43583;53.132;6.574;2022-07-15T08:54:23;20.70;95.00
57753;DHT22;43583;53.132;6.574;2022-07-15T08:56:48;21.30;95.80
57753;DHT22;43583;53.132;6.574;2022-07-15T08:59:14;22.00;95.40
57753;DHT22;43583;53.132;6.574;2022-07-15T09:01:48;22.70;92.80
57753;DHT22;43583;53.132;6.574;2022-07-15T09:04:15;23.20;89.90
57753;DHT22;43583;53.132;6.574;2022-07-15T09:06:43;23.40;86.50
57753;DHT22;43583;53.132;6.574;2022-07-15T09:09:22;23.50;84.90
57753;DHT22;43583;53.132;6.574;2022-07-15T09:12:14;23.20;82.30
57753;DHT22;43583;53.132;6.574;2022-07-15T09:14:40;22.90;83.00
57753;DHT22;43583;53.132;6.574;2022-07-15T09:22:21;24.90;73.20
57753;DHT22;43583;53.132;6.574;2022-07-15T09:25:04;24.40;74.00
57753;DHT22;43583;53.132;6.574;2022-07-15T09:27:33;23.60;73.40
57753;DHT22;43583;53.132;6.574;2022-07-15T09:30:22;22.70;77.00
57753;DHT22;43583;53.132;6.574;2022-07-15T09:33:12;22.00;78.20
57753;DHT22;43583;53.132;6.574;2022-07-15T09:38:54;21.10;84.50
57753;DHT22;43583;53.132;6.574;2022-07-15T09:43:49;21.00;85.70
57753;DHT22;43583;53.132;6.574;2022-07-15T09:46:15;21.40;86.20
57753;DHT22;43583;53.132;6.574;2022-07-15T09:48:43;22.10;85.90
57753;DHT22;43583;53.132;6.574;2022-07-15T09:51:09;22.40;82.00
57753;DHT22;43583;53.132;6.574;2022-07-15T09:53:36;22.40;81.50
57753;DHT22;43583;53.132;6.574;2022-07-15T09:56:03;22.30;81.80
57753;DHT22;43583;53.132;6.574;2022-07-15T09:58:29;22.50;81.30
57753;DHT22;43583;53.132;6.574;2022-07-15T10:00:56;22.40;79.90
57753;DHT22;43583;53.132;6.574;2022-07-15T10:03:22;22.50;80.00
57753;DHT22;43583;53.132;6.574;2022-07-15T10:05:53;22.90;79.10
57753;DHT22;43583;53.132;6.574;2022-07-15T10:08:19;23.10;82.30
57753;DHT22;43583;53.132;6.574;2022-07-15T10:10:46;23.20;81.80
57753;DHT22;43583;53.132;6.574;2022-07-15T10:13:54;23.10;79.60
57753;DHT22;43583;53.132;6.574;2022-07-15T10:27:44;24.00;75.60
57753;DHT22;43583;53.132;6.574;2022-07-15T10:30:11;23.90;74.90
57753;DHT22;43583;53.132;6.574;2022-07-15T10:35:51;23.80;73.80
57753;DHT22;43583;53.132;6.574;2022-07-15T10:41:08;23.60;72.70
57753;DHT22;43583;53.132;6.574;2022-07-15T10:43:52;23.20;72.00
57753;DHT22;43583;53.132;6.574;2022-07-15T10:48:44;22.60;76.50
57753;DHT22;43583;53.132;6.574;2022-07-15T10:51:11;22.30;76.80
57753;DHT22;43583;53.132;6.574;2022-07-15T10:53:44;21.80;79.10
57753;DHT22;43583;53.132;6.574;2022-07-15T10:56:33;21.70;79.50
57753;DHT22;43583;53.132;6.574;2022-07-15T10:59:39;21.70;81.40
57753;DHT22;43583;53.132;6.574;2022-07-15T11:04:33;21.80;82.80
57753;DHT22;43583;53.132;6.574;2022-07-15T11:19:59;21.90;79.30
57753;DHT22;43583;53.132;6.574;2022-07-15T11:22:27;21.80;79.20
57753;DHT22;43583;53.132;6.574;2022-07-15T11:24:54;21.70;79.90
57753;DHT22;43583;53.132;6.574;2022-07-15T11:27:24;21.70;80.40
57753;DHT22;43583;53.132;6.574;2022-07-15T11:29:52;21.70;79.70
57753;DHT22;43583;53.132;6.574;2022-07-15T11:32:20;21.90;81.30
57753;DHT22;43583;53.132;6.574;2022-07-15T11:34:57;22.20;82.20
57753;DHT22;43583;53.132;6.574;2022-07-15T11:37:28;22.30;80.80
57753;DHT22;43583;53.132;6.574;2022-07-15T11:40:11;22.40;81.70
57753;DHT22;43583;53.132;6.574;2022-07-15T11:42:37;22.00;78.90
57753;DHT22;43583;53.132;6.574;2022-07-15T11:45:36;21.80;79.30
57753;DHT22;43583;53.132;6.574;2022-07-15T11:48:04;21.40;80.30
57753;DHT22;43583;53.132;6.574;2022-07-15T11:50:32;21.10;80.80
57753;DHT22;43583;53.132;6.574;2022-07-15T11:52:58;21.00;82.40
57753;DHT22;43583;53.132;6.574;2022-07-15T11:55:24;20.80;82.80
57753;DHT22;43583;53.132;6.574;2022-07-15T11:57:50;20.70;83.90
57753;DHT22;43583;53.132;6.574;2022-07-15T12:00:17;20.70;85.20
57753;DHT22;43583;53.132;6.574;2022-07-15T12:02:44;20.90;86.00
57753;DHT22;43583;53.132;6.574;2022-07-15T12:05:11;20.90;86.70
57753;DHT22;43583;53.132;6.574;2022-07-15T12:07:43;21.00;83.80
57753;DHT22;43583;53.132;6.574;2022-07-15T12:10:11;21.10;83.70
57753;DHT22;43583;53.132;6.574;2022-07-15T12:12:54;21.20;83.20
57753;DHT22;43583;53.132;6.574;2022-07-15T12:15:20;21.50;81.90
57753;DHT22;43583;53.132;6.574;2022-07-15T12:17:46;21.70;82.50
57753;DHT22;43583;53.132;6.574;2022-07-15T12:20:12;21.80;82.50
57753;DHT22;43583;53.132;6.574;2022-07-15T12:23:02;21.80;82.30
57753;DHT22;43583;53.132;6.574;2022-07-15T12:25:27;21.70;80.40
57753;DHT22;43583;53.132;6.574;2022-07-15T12:27:53;21.40;82.40
57753;DHT22;43583;53.132;6.574;2022-07-15T12:30:19;21.00;83.40
57753;DHT22;43583;53.132;6.574;2022-07-15T12:32:44;20.70;82.90
57753;DHT22;43583;53.132;6.574;2022-07-15T12:35:10;20.50;85.30
57753;DHT22;43583;53.132;6.574;2022-07-15T12:40:09;20.50;87.30
57753;DHT22;43583;53.132;6.574;2022-07-15T12:42:40;20.90;88.30
57753;DHT22;43583;53.132;6.574;2022-07-15T12:45:16;21.10;86.90
57753;DHT22;43583;53.132;6.574;2022-07-15T12:50:23;21.00;86.40
57753;DHT22;43583;53.132;6.574;2022-07-15T12:52:48;21.00;87.20
57753;DHT22;43583;53.132;6.574;2022-07-15T12:57:42;20.70;87.10
57753;DHT22;43583;53.132;6.574;2022-07-15T13:00:21;20.50;88.60
57753;DHT22;43583;53.132;6.574;2022-07-15T13:03:20;20.40;89.70
57753;DHT22;43583;53.132;6.574;2022-07-15T13:05:48;20.30;90.90
57753;DHT22;43583;53.132;6.574;2022-07-15T13:08:23;20.10;91.60
57753;DHT22;43583;53.132;6.574;2022-07-15T13:10:52;20.00;92.40
57753;DHT22;43583;53.132;6.574;2022-07-15T13:13:20;19.90;91.80
57753;DHT22;43583;53.132;6.574;2022-07-15T13:15:46;19.80;91.50
57753;DHT22;43583;53.132;6.574;2022-07-15T13:18:13;19.90;91.70
57753;DHT22;43583;53.132;6.574;2022-07-15T13:20:39;19.90;91.80
57753;DHT22;43583;53.132;6.574;2022-07-15T13:23:05;20.00;91.50
57753;DHT22;43583;53.132;6.574;2022-07-15T13:25:32;20.00;91.70
57753;DHT22;43583;53.132;6.574;2022-07-15T13:27:58;19.90;91.80
57753;DHT22;43583;53.132;6.574;2022-07-15T13:30:26;19.90;92.60
57753;DHT22;43583;53.132;6.574;2022-07-15T13:32:52;19.70;92.90
57753;DHT22;43583;53.132;6.574;2022-07-15T13:35:18;19.70;93.50
57753;DHT22;43583;53.132;6.574;2022-07-15T13:37:43;19.60;94.10
57753;DHT22;43583;53.132;6.574;2022-07-15T13:40:10;19.60;94.50
57753;DHT22;43583;53.132;6.574;2022-07-15T13:42:37;19.60;95.50
57753;DHT22;43583;53.132;6.574;2022-07-15T13:45:05;19.60;95.40
57753;DHT22;43583;53.132;6.574;2022-07-15T13:47:31;19.50;95.80
57753;DHT22;43583;53.132;6.574;2022-07-15T13:49:57;19.50;97.10
57753;DHT22;43583;53.132;6.574;2022-07-15T13:52:51;19.40;97.70
57753;DHT22;43583;53.132;6.574;2022-07-15T13:55:19;19.40;98.10
57753;DHT22;43583;53.132;6.574;2022-07-15T13:57:45;19.30;99.10
57753;DHT22;43583;53.132;6.574;2022-07-15T14:00:13;19.30;99.90
57753;DHT22;43583;53.132;6.574;2022-07-15T14:02:39;19.40;99.90
57753;DHT22;43583;53.132;6.574;2022-07-15T14:05:05;19.70;99.90
57753;DHT22;43583;53.132;6.574;2022-07-15T14:07:31;20.00;99.90
57753;DHT22;43583;53.132;6.574;2022-07-15T14:09:57;20.30;99.90
57753;DHT22;43583;53.132;6.574;2022-07-15T14:12:23;20.60;99.30
57753;DHT22;43583;53.132;6.574;2022-07-15T14:14:48;20.80;99.30
57753;DHT22;43583;53.132;6.574;2022-07-15T14:17:15;21.00;98.00
57753;DHT22;43583;53.132;6.574;2022-07-15T14:19:41;21.20;97.30
57753;DHT22;43583;53.132;6.574;2022-07-15T14:22:07;21.20;95.60
57753;DHT22;43583;53.132;6.574;2022-07-15T14:24:33;21.40;95.90
57753;DHT22;43583;53.132;6.574;2022-07-15T14:26:58;21.50;96.00
57753;DHT22;43583;53.132;6.574;2022-07-15T14:29:24;21.40;96.20
57753;DHT22;43583;53.132;6.574;2022-07-15T14:31:49;21.30;96.10
57753;DHT22;43583;53.132;6.574;2022-07-15T14:34:15;21.30;96.10
57753;DHT22;43583;53.132;6.574;2022-07-15T14:36:40;21.30;95.40
57753;DHT22;43583;53.132;6.574;2022-07-15T14:39:07;21.30;95.80
57753;DHT22;43583;53.132;6.574;2022-07-15T14:41:32;21.40;95.70
57753;DHT22;43583;53.132;6.574;2022-07-15T14:43:58;21.40;95.20
57753;DHT22;43583;53.132;6.574;2022-07-15T14:46:25;21.40;95.50
57753;DHT22;43583;53.132;6.574;2022-07-15T14:48:50;21.30;94.50
57753;DHT22;43583;53.132;6.574;2022-07-15T14:51:16;21.20;95.10
57753;DHT22;43583;53.132;6.574;2022-07-15T14:53:42;21.40;95.10
57753;DHT22;43583;53.132;6.574;2022-07-15T14:56:07;21.40;95.60
57753;DHT22;43583;53.132;6.574;2022-07-15T14:58:33;21.40;95.90
57753;DHT22;43583;53.132;6.574;2022-07-15T15:00:58;21.40;96.60
57753;DHT22;43583;53.132;6.574;2022-07-15T15:03:24;21.40;96.20
57753;DHT22;43583;53.132;6.574;2022-07-15T15:05:50;21.30;94.80
57753;DHT22;43583;53.132;6.574;2022-07-15T15:08:15;21.10;94.90
57753;DHT22;43583;53.132;6.574;2022-07-15T15:10:41;21.00;95.80
57753;DHT22;43583;53.132;6.574;2022-07-15T15:13:07;20.70;97.00
57753;DHT22;43583;53.132;6.574;2022-07-15T15:15:33;20.50;97.70
57753;DHT22;43583;53.132;6.574;2022-07-15T15:17:59;20.30;98.90
57753;DHT22;43583;53.132;6.574;2022-07-15T15:20:24;20.30;99.50
57753;DHT22;43583;53.132;6.574;2022-07-15T15:22:50;20.20;99.90
57753;DHT22;43583;53.132;6.574;2022-07-15T15:25:16;20.20;99.90
57753;DHT22;43583;53.132;6.574;2022-07-15T15:28:01;20.20;99.90
57753;DHT22;43583;53.132;6.574;2022-07-15T15:30:27;20.30;99.90
57753;DHT22;43583;53.132;6.574;2022-07-15T15:32:52;20.40;99.60
57753;DHT22;43583;53.132;6.574;2022-07-15T15:35:18;20.60;98.60
57753;DHT22;43583;53.132;6.574;2022-07-15T15:37:44;20.80;97.50
57753;DHT22;43583;53.132;6.574;2022-07-15T15:40:09;20.90;96.40
57753;DHT22;43583;53.132;6.574;2022-07-15T15:42:35;21.10;96.20
57753;DHT22;43583;53.132;6.574;2022-07-15T15:45:01;21.30;95.70
57753;DHT22;43583;53.132;6.574;2022-07-15T15:47:26;21.50;95.30
57753;DHT22;43583;53.132;6.574;2022-07-15T15:49:52;21.50;93.80
57753;DHT22;43583;53.132;6.574;2022-07-15T15:52:17;21.50;94.30
57753;DHT22;43583;53.132;6.574;2022-07-15T15:54:43;21.40;94.20
57753;DHT22;43583;53.132;6.574;2022-07-15T15:57:08;21.30;93.10
57753;DHT22;43583;53.132;6.574;2022-07-15T15:59:34;21.20;93.80
57753;DHT22;43583;53.132;6.574;2022-07-15T16:02:00;21.10;94.30
57753;DHT22;43583;53.132;6.574;2022-07-15T16:04:26;21.00;94.30
57753;DHT22;43583;53.132;6.574;2022-07-15T16:06:52;20.90;95.20
57753;DHT22;43583;53.132;6.574;2022-07-15T16:09:18;20.90;95.90
57753;DHT22;43583;53.132;6.574;2022-07-15T16:11:43;21.00;96.90
57753;DHT22;43583;53.132;6.574;2022-07-15T16:14:09;20.90;96.20
57753;DHT22;43583;53.132;6.574;2022-07-15T16:16:34;20.90;96.30
57753;DHT22;43583;53.132;6.574;2022-07-15T16:19:00;20.90;96.00
57753;DHT22;43583;53.132;6.574;2022-07-15T16:21:25;20.70;95.80
57753;DHT22;43583;53.132;6.574;2022-07-15T16:24:09;20.70;96.30